sensor_id;sensor_type;location;lat;lon;timestamp;P1;durP1;ratioP1;P2;durP2;ratioP2
57101;SDS011;42982;54.558;18.508;2023-11-21T00:01:02;3.47;;;2.30;;
57101;SDS011;42982;54.558;18.508;2023-11-21T00:02:04;6.05;;;1.98;;
57101;SDS011;42982;54.558;18.508;2023-11-21T00:03:06;3.42;;;1.77;;
57101;SDS011;42982;54.558;18.508;2023-11-21T00:04:11;3.50;;;2.10;;
57101;SDS011;42982;54.558;18.508;2023-11-21T00:05:13;3.63;;;2.03;;
57101;SDS011;42982;54.558;18.508;2023-11-21T00:06:14;3.65;;;2.20;;
57101;SDS011;42982;54.558;18.508;2023-11-21T00:07:16;4.10;;;2.20;;
57101;SDS011;42982;54.558;18.508;2023-11-21T00:08:17;4.53;;;2.00;;
57101;SDS011;42982;54.558;18.508;2023-11-21T00:09:19;3.08;;;1.92;;
57101;SDS011;42982;54.558;18.508;2023-11-21T00:10:21;3.22;;;1.88;;
57101;SDS011;42982;54.558;18.508;2023-11-21T00:11:22;5.68;;;2.17;;
57101;SDS011;42982;54.558;18.508;2023-11-21T00:12:26;3.40;;;2.10;;
57101;SDS011;42982;54.558;18.508;2023-11-21T00:13:29;3.22;;;1.73;;
57101;SDS011;42982;54.558;18.508;2023-11-21T00:14:31;4.20;;;1.90;;
57101;SDS011;42982;54.558;18.508;2023-11-21T00:15:33;4.15;;;1.85;;
57101;SDS011;42982;54.558;18.508;2023-11-21T00:16:35;4.00;;;2.15;;
57101;SDS011;42982;54.558;18.508;2023-11-21T00:17:39;4.32;;;1.90;;
57101;SDS011;42982;54.558;18.508;2023-11-21T00:18:44;4.35;;;2.28;;
57101;SDS011;42982;54.558;18.508;2023-11-21T00:19:50;2.83;;;1.67;;
57101;SDS011;42982;54.558;18.508;2023-11-21T00:20:54;3.03;;;1.85;;
57101;SDS011;42982;54.558;18.508;2023-11-21T00:22:02;4.95;;;2.22;;
57101;SDS011;42982;54.558;18.508;2023-11-21T00:23:04;3.70;;;1.92;;
57101;SDS011;42982;54.558;18.508;2023-11-21T00:24:08;2.72;;;1.85;;
57101;SDS011;42982;54.558;18.508;2023-11-21T00:25:13;4.13;;;1.90;;
57101;SDS011;42982;54.558;18.508;2023-11-21T00:26:15;2.42;;;1.80;;
57101;SDS011;42982;54.558;18.508;2023-11-21T00:27:22;4.10;;;2.03;;
57101;SDS011;42982;54.558;18.508;2023-11-21T00:28:24;3.13;;;1.73;;
57101;SDS011;42982;54.558;18.508;2023-11-21T00:29:26;2.88;;;1.70;;
57101;SDS011;42982;54.558;18.508;2023-11-21T00:30:27;2.50;;;1.90;;
57101;SDS011;42982;54.558;18.508;2023-11-21T00:31:29;3.10;;;1.80;;
57101;SDS011;42982;54.558;18.508;2023-11-21T00:32:31;3.53;;;2.05;;
57101;SDS011;42982;54.558;18.508;2023-11-21T00:33:33;3.60;;;1.88;;
57101;SDS011;42982;54.558;18.508;2023-11-21T00:34:37;4.28;;;2.00;;
57101;SDS011;42982;54.558;18.508;2023-11-21T00:35:38;2.92;;;1.80;;
57101;SDS011;42982;54.558;18.508;2023-11-21T00:36:40;3.42;;;1.70;;
57101;SDS011;42982;54.558;18.508;2023-11-21T00:37:42;3.42;;;1.73;;
57101;SDS011;42982;54.558;18.508;2023-11-21T00:38:44;5.53;;;2.05;;
57101;SDS011;42982;54.558;18.508;2023-11-21T00:39:45;2.60;;;1.60;;
57101;SDS011;42982;54.558;18.508;2023-11-21T00:40:47;2.95;;;1.60;;
57101;SDS011;42982;54.558;18.508;2023-11-21T00:41:48;3.38;;;1.67;;
57101;SDS011;42982;54.558;18.508;2023-11-21T00:42:53;3.03;;;1.90;;
57101;SDS011;42982;54.558;18.508;2023-11-21T00:43:56;2.50;;;1.70;;
57101;SDS011;42982;54.558;18.508;2023-11-21T00:44:58;2.08;;;1.50;;
57101;SDS011;42982;54.558;18.508;2023-11-21T00:46:03;2.85;;;1.73;;
57101;SDS011;42982;54.558;18.508;2023-11-21T00:47:07;4.20;;;2.35;;
57101;SDS011;42982;54.558;18.508;2023-11-21T00:48:09;2.38;;;1.63;;
57101;SDS011;42982;54.558;18.508;2023-11-21T00:49:12;3.08;;;1.75;;
57101;SDS011;42982;54.558;18.508;2023-11-21T00:50:14;2.85;;;1.85;;
57101;SDS011;42982;54.558;18.508;2023-11-21T00:51:16;3.10;;;1.60;;
57101;SDS011;42982;54.558;18.508;2023-11-21T00:52:18;2.85;;;1.75;;
57101;SDS011;42982;54.558;18.508;2023-11-21T00:53:20;2.60;;;1.75;;
57101;SDS011;42982;54.558;18.508;2023-11-21T00:54:22;2.40;;;1.70;;
57101;SDS011;42982;54.558;18.508;2023-11-21T00:55:24;3.30;;;1.65;;
57101;SDS011;42982;54.558;18.508;2023-11-21T00:56:28;2.38;;;1.55;;
57101;SDS011;42982;54.558;18.508;2023-11-21T00:57:33;2.55;;;1.85;;
57101;SDS011;42982;54.558;18.508;2023-11-21T00:58:34;2.83;;;1.80;;
57101;SDS011;42982;54.558;18.508;2023-11-21T00:59:36;3.00;;;2.03;;
57101;SDS011;42982;54.558;18.508;2023-11-21T01:00:38;2.55;;;1.70;;
57101;SDS011;42982;54.558;18.508;2023-11-21T01:01:39;2.42;;;1.50;;
57101;SDS011;42982;54.558;18.508;2023-11-21T01:02:41;3.20;;;1.83;;
57101;SDS011;42982;54.558;18.508;2023-11-21T01:03:48;3.78;;;1.90;;
57101;SDS011;42982;54.558;18.508;2023-11-21T01:04:50;3.63;;;1.95;;
57101;SDS011;42982;54.558;18.508;2023-11-21T01:05:52;3.25;;;1.70;;
57101;SDS011;42982;54.558;18.508;2023-11-21T01:06:55;2.60;;;1.58;;
57101;SDS011;42982;54.558;18.508;2023-11-21T01:07:56;2.92;;;1.77;;
57101;SDS011;42982;54.558;18.508;2023-11-21T01:08:58;2.45;;;1.63;;
57101;SDS011;42982;54.558;18.508;2023-11-21T01:10:00;2.42;;;1.48;;
57101;SDS011;42982;54.558;18.508;2023-11-21T01:11:01;3.03;;;1.70;;
57101;SDS011;42982;54.558;18.508;2023-11-21T01:12:03;2.50;;;1.70;;
57101;SDS011;42982;54.558;18.508;2023-11-21T01:13:08;2.70;;;1.55;;
57101;SDS011;42982;54.558;18.508;2023-11-21T01:14:12;1.83;;;1.35;;
57101;SDS011;42982;54.558;18.508;2023-11-21T01:15:14;2.40;;;1.60;;
57101;SDS011;42982;54.558;18.508;2023-11-21T01:16:16;2.70;;;1.75;;
57101;SDS011;42982;54.558;18.508;2023-11-21T01:17:18;2.58;;;1.50;;
57101;SDS011;42982;54.558;18.508;2023-11-21T01:18:20;2.13;;;1.45;;
57101;SDS011;42982;54.558;18.508;2023-11-21T01:19:26;3.78;;;1.70;;
57101;SDS011;42982;54.558;18.508;2023-11-21T01:20:29;3.25;;;1.55;;
57101;SDS011;42982;54.558;18.508;2023-11-21T01:21:31;4.43;;;1.70;;
57101;SDS011;42982;54.558;18.508;2023-11-21T01:22:34;3.15;;;1.58;;
57101;SDS011;42982;54.558;18.508;2023-11-21T01:23:38;2.38;;;1.50;;
57101;SDS011;42982;54.558;18.508;2023-11-21T01:24:40;2.58;;;1.52;;
57101;SDS011;42982;54.558;18.508;2023-11-21T01:25:42;2.55;;;1.60;;
57101;SDS011;42982;54.558;18.508;2023-11-21T01:26:44;2.67;;;1.60;;
57101;SDS011;42982;54.558;18.508;2023-11-21T01:27:46;1.95;;;1.27;;
57101;SDS011;42982;54.558;18.508;2023-11-21T01:28:48;3.47;;;1.45;;
57101;SDS011;42982;54.558;18.508;2023-11-21T01:29:50;3.33;;;1.40;;
57101;SDS011;42982;54.558;18.508;2023-11-21T01:30:56;2.20;;;1.55;;
57101;SDS011;42982;54.558;18.508;2023-11-21T01:31:58;2.63;;;1.52;;
57101;SDS011;42982;54.558;18.508;2023-11-21T01:32:59;4.15;;;1.50;;
57101;SDS011;42982;54.558;18.508;2023-11-21T01:34:01;2.78;;;1.50;;
57101;SDS011;42982;54.558;18.508;2023-11-21T01:35:02;2.45;;;1.60;;
57101;SDS011;42982;54.558;18.508;2023-11-21T01:36:09;3.00;;;1.45;;
57101;SDS011;42982;54.558;18.508;2023-11-21T01:37:12;2.28;;;1.50;;
57101;SDS011;42982;54.558;18.508;2023-11-21T01:38:14;3.00;;;1.52;;
57101;SDS011;42982;54.558;18.508;2023-11-21T01:39:17;1.98;;;1.40;;
57101;SDS011;42982;54.558;18.508;2023-11-21T01:41:31;2.50;;;1.50;;
57101;SDS011;42982;54.558;18.508;2023-11-21T01:42:32;3.50;;;1.45;;
57101;SDS011;42982;54.558;18.508;2023-11-21T01:43:35;2.05;;;1.35;;
57101;SDS011;42982;54.558;18.508;2023-11-21T01:44:40;1.90;;;1.40;;
57101;SDS011;42982;54.558;18.508;2023-11-21T01:45:42;2.75;;;1.50;;
57101;SDS011;42982;54.558;18.508;2023-11-21T01:46:45;2.10;;;1.30;;
57101;SDS011;42982;54.558;18.508;2023-11-21T01:47:49;2.05;;;1.60;;
57101;SDS011;42982;54.558;18.508;2023-11-21T01:48:53;2.47;;;1.60;;
57101;SDS011;42982;54.558;18.508;2023-11-21T01:49:55;1.83;;;1.30;;
57101;SDS011;42982;54.558;18.508;2023-11-21T01:51:04;2.10;;;1.60;;
57101;SDS011;42982;54.558;18.508;2023-11-21T01:52:06;2.10;;;1.33;;
57101;SDS011;42982;54.558;18.508;2023-11-21T01:53:11;1.90;;;1.45;;
57101;SDS011;42982;54.558;18.508;2023-11-21T01:54:13;2.30;;;1.50;;
57101;SDS011;42982;54.558;18.508;2023-11-21T01:55:17;2.10;;;1.30;;
57101;SDS011;42982;54.558;18.508;2023-11-21T01:56:19;3.67;;;1.55;;
57101;SDS011;42982;54.558;18.508;2023-11-21T01:57:25;2.13;;;1.52;;
57101;SDS011;42982;54.558;18.508;2023-11-21T01:58:27;2.10;;;1.45;;
57101;SDS011;42982;54.558;18.508;2023-11-21T01:59:30;2.08;;;1.38;;
57101;SDS011;42982;54.558;18.508;2023-11-21T02:00:37;2.45;;;1.48;;
57101;SDS011;42982;54.558;18.508;2023-11-21T02:01:40;2.22;;;1.35;;
57101;SDS011;42982;54.558;18.508;2023-11-21T02:02:43;2.53;;;1.58;;
57101;SDS011;42982;54.558;18.508;2023-11-21T02:03:45;4.15;;;1.45;;
57101;SDS011;42982;54.558;18.508;2023-11-21T02:04:47;2.00;;;1.30;;
57101;SDS011;42982;54.558;18.508;2023-11-21T02:05:48;2.20;;;1.35;;
57101;SDS011;42982;54.558;18.508;2023-11-21T02:06:50;3.25;;;1.40;;
57101;SDS011;42982;54.558;18.508;2023-11-21T02:07:55;2.70;;;1.40;;
57101;SDS011;42982;54.558;18.508;2023-11-21T02:08:59;2.45;;;1.38;;
57101;SDS011;42982;54.558;18.508;2023-11-21T02:10:01;3.65;;;1.70;;
57101;SDS011;42982;54.558;18.508;2023-11-21T02:11:02;1.65;;;1.42;;
57101;SDS011;42982;54.558;18.508;2023-11-21T02:12:04;1.83;;;1.20;;
57101;SDS011;42982;54.558;18.508;2023-11-21T02:13:06;2.17;;;1.48;;
57101;SDS011;42982;54.558;18.508;2023-11-21T02:14:08;1.73;;;1.40;;
57101;SDS011;42982;54.558;18.508;2023-11-21T02:15:12;2.40;;;1.55;;
57101;SDS011;42982;54.558;18.508;2023-11-21T02:16:27;2.60;;;1.30;;
57101;SDS011;42982;54.558;18.508;2023-11-21T02:17:32;5.03;;;1.38;;
57101;SDS011;42982;54.558;18.508;2023-11-21T02:18:34;2.58;;;1.40;;
57101;SDS011;42982;54.558;18.508;2023-11-21T02:19:39;2.60;;;1.20;;
57101;SDS011;42982;54.558;18.508;2023-11-21T02:20:40;2.58;;;1.20;;
57101;SDS011;42982;54.558;18.508;2023-11-21T02:21:43;3.60;;;1.48;;
57101;SDS011;42982;54.558;18.508;2023-11-21T02:22:54;1.65;;;1.30;;
57101;SDS011;42982;54.558;18.508;2023-11-21T02:23:59;2.53;;;1.20;;
57101;SDS011;42982;54.558;18.508;2023-11-21T02:25:03;1.80;;;1.40;;
57101;SDS011;42982;54.558;18.508;2023-11-21T02:26:08;2.10;;;1.38;;
57101;SDS011;42982;54.558;18.508;2023-11-21T02:27:10;2.70;;;1.40;;
57101;SDS011;42982;54.558;18.508;2023-11-21T02:28:14;2.70;;;1.50;;
57101;SDS011;42982;54.558;18.508;2023-11-21T02:29:26;2.28;;;1.30;;
57101;SDS011;42982;54.558;18.508;2023-11-21T02:30:28;1.92;;;1.30;;
57101;SDS011;42982;54.558;18.508;2023-11-21T02:31:35;1.90;;;1.27;;
57101;SDS011;42982;54.558;18.508;2023-11-21T02:32:37;2.88;;;1.40;;
57101;SDS011;42982;54.558;18.508;2023-11-21T02:33:42;1.85;;;1.30;;
57101;SDS011;42982;54.558;18.508;2023-11-21T02:34:46;2.40;;;1.38;;
57101;SDS011;42982;54.558;18.508;2023-11-21T02:35:48;2.00;;;1.40;;
57101;SDS011;42982;54.558;18.508;2023-11-21T02:36:51;2.35;;;1.42;;
57101;SDS011;42982;54.558;18.508;2023-11-21T02:37:54;1.80;;;1.33;;
57101;SDS011;42982;54.558;18.508;2023-11-21T02:38:55;2.35;;;1.38;;
57101;SDS011;42982;54.558;18.508;2023-11-21T02:40:00;1.85;;;1.35;;
57101;SDS011;42982;54.558;18.508;2023-11-21T02:41:05;3.42;;;1.55;;
57101;SDS011;42982;54.558;18.508;2023-11-21T02:42:09;3.17;;;1.48;;
57101;SDS011;42982;54.558;18.508;2023-11-21T02:43:14;2.45;;;1.33;;
57101;SDS011;42982;54.558;18.508;2023-11-21T02:44:16;1.58;;;1.30;;
57101;SDS011;42982;54.558;18.508;2023-11-21T02:45:18;3.65;;;1.45;;
57101;SDS011;42982;54.558;18.508;2023-11-21T02:46:21;1.65;;;1.13;;
57101;SDS011;42982;54.558;18.508;2023-11-21T02:47:22;1.90;;;1.38;;
57101;SDS011;42982;54.558;18.508;2023-11-21T02:48:24;1.65;;;1.30;;
57101;SDS011;42982;54.558;18.508;2023-11-21T02:49:26;2.28;;;1.30;;
57101;SDS011;42982;54.558;18.508;2023-11-21T02:50:28;1.50;;;1.20;;
57101;SDS011;42982;54.558;18.508;2023-11-21T02:51:30;1.98;;;1.42;;
57101;SDS011;42982;54.558;18.508;2023-11-21T02:52:31;2.33;;;1.42;;
57101;SDS011;42982;54.558;18.508;2023-11-21T02:53:33;2.33;;;1.40;;
57101;SDS011;42982;54.558;18.508;2023-11-21T02:54:36;2.75;;;1.33;;
57101;SDS011;42982;54.558;18.508;2023-11-21T02:55:40;2.13;;;1.40;;
57101;SDS011;42982;54.558;18.508;2023-11-21T02:56:42;2.25;;;1.45;;
57101;SDS011;42982;54.558;18.508;2023-11-21T02:57:44;2.05;;;1.30;;
57101;SDS011;42982;54.558;18.508;2023-11-21T02:58:45;2.17;;;1.38;;
57101;SDS011;42982;54.558;18.508;2023-11-21T02:59:46;1.85;;;1.35;;
57101;SDS011;42982;54.558;18.508;2023-11-21T03:00:47;2.22;;;1.30;;
57101;SDS011;42982;54.558;18.508;2023-11-21T03:01:49;1.63;;;1.27;;
57101;SDS011;42982;54.558;18.508;2023-11-21T03:02:51;1.95;;;1.27;;
57101;SDS011;42982;54.558;18.508;2023-11-21T03:03:54;1.65;;;1.25;;
57101;SDS011;42982;54.558;18.508;2023-11-21T03:04:56;2.17;;;1.38;;
57101;SDS011;42982;54.558;18.508;2023-11-21T03:05:58;1.42;;;1.13;;
57101;SDS011;42982;54.558;18.508;2023-11-21T03:07:00;1.75;;;1.20;;
57101;SDS011;42982;54.558;18.508;2023-11-21T03:08:02;1.55;;;1.20;;
57101;SDS011;42982;54.558;18.508;2023-11-21T03:09:04;3.17;;;1.40;;
57101;SDS011;42982;54.558;18.508;2023-11-21T03:10:12;1.92;;;1.20;;
57101;SDS011;42982;54.558;18.508;2023-11-21T03:11:16;2.03;;;1.30;;
57101;SDS011;42982;54.558;18.508;2023-11-21T03:12:20;1.55;;;1.20;;
57101;SDS011;42982;54.558;18.508;2023-11-21T03:13:22;1.48;;;1.10;;
57101;SDS011;42982;54.558;18.508;2023-11-21T03:14:26;2.65;;;1.30;;
57101;SDS011;42982;54.558;18.508;2023-11-21T03:15:27;2.63;;;1.40;;
57101;SDS011;42982;54.558;18.508;2023-11-21T03:16:29;2.03;;;1.50;;
57101;SDS011;42982;54.558;18.508;2023-11-21T03:17:31;1.98;;;1.30;;
57101;SDS011;42982;54.558;18.508;2023-11-21T03:18:34;2.30;;;1.40;;
57101;SDS011;42982;54.558;18.508;2023-11-21T03:19:35;2.97;;;1.48;;
57101;SDS011;42982;54.558;18.508;2023-11-21T03:20:37;2.50;;;1.30;;
57101;SDS011;42982;54.558;18.508;2023-11-21T03:21:38;1.98;;;1.30;;
57101;SDS011;42982;54.558;18.508;2023-11-21T03:22:40;1.80;;;1.20;;
57101;SDS011;42982;54.558;18.508;2023-11-21T03:23:44;2.10;;;1.50;;
57101;SDS011;42982;54.558;18.508;2023-11-21T03:24:45;1.85;;;1.20;;
57101;SDS011;42982;54.558;18.508;2023-11-21T03:25:46;3.00;;;1.75;;
57101;SDS011;42982;54.558;18.508;2023-11-21T03:26:48;1.83;;;1.20;;
57101;SDS011;42982;54.558;18.508;2023-11-21T03:27:53;2.13;;;1.35;;
57101;SDS011;42982;54.558;18.508;2023-11-21T03:28:54;2.10;;;1.35;;
57101;SDS011;42982;54.558;18.508;2023-11-21T03:29:59;1.90;;;1.30;;
57101;SDS011;42982;54.558;18.508;2023-11-21T03:31:03;1.40;;;1.10;;
57101;SDS011;42982;54.558;18.508;2023-11-21T03:32:12;1.98;;;1.40;;
57101;SDS011;42982;54.558;18.508;2023-11-21T03:33:13;2.13;;;1.25;;
57101;SDS011;42982;54.558;18.508;2023-11-21T03:34:16;1.98;;;1.40;;
57101;SDS011;42982;54.558;18.508;2023-11-21T03:35:43;1.60;;;1.25;;
57101;SDS011;42982;54.558;18.508;2023-11-21T03:36:47;1.30;;;1.00;;
57101;SDS011;42982;54.558;18.508;2023-11-21T03:37:52;1.80;;;1.30;;
57101;SDS011;42982;54.558;18.508;2023-11-21T03:38:55;1.65;;;1.13;;
57101;SDS011;42982;54.558;18.508;2023-11-21T03:40:03;2.88;;;1.40;;
57101;SDS011;42982;54.558;18.508;2023-11-21T03:41:08;1.55;;;1.10;;
57101;SDS011;42982;54.558;18.508;2023-11-21T03:42:10;2.08;;;1.40;;
57101;SDS011;42982;54.558;18.508;2023-11-21T03:43:13;1.75;;;1.30;;
57101;SDS011;42982;54.558;18.508;2023-11-21T03:44:14;1.80;;;1.10;;
57101;SDS011;42982;54.558;18.508;2023-11-21T03:45:15;2.25;;;1.48;;
57101;SDS011;42982;54.558;18.508;2023-11-21T03:46:17;1.45;;;1.20;;
57101;SDS011;42982;54.558;18.508;2023-11-21T03:47:18;1.95;;;1.40;;
57101;SDS011;42982;54.558;18.508;2023-11-21T03:48:22;2.13;;;1.30;;
57101;SDS011;42982;54.558;18.508;2023-11-21T03:49:23;1.27;;;1.13;;
57101;SDS011;42982;54.558;18.508;2023-11-21T03:50:25;1.38;;;1.20;;
57101;SDS011;42982;54.558;18.508;2023-11-21T03:51:26;1.40;;;1.20;;
57101;SDS011;42982;54.558;18.508;2023-11-21T03:52:36;1.55;;;1.13;;
57101;SDS011;42982;54.558;18.508;2023-11-21T03:53:38;1.90;;;1.30;;
57101;SDS011;42982;54.558;18.508;2023-11-21T03:54:43;1.85;;;1.20;;
57101;SDS011;42982;54.558;18.508;2023-11-21T03:55:45;1.75;;;1.20;;
57101;SDS011;42982;54.558;18.508;2023-11-21T03:56:47;2.53;;;1.35;;
57101;SDS011;42982;54.558;18.508;2023-11-21T03:57:50;2.28;;;1.20;;
57101;SDS011;42982;54.558;18.508;2023-11-21T03:58:54;2.00;;;1.30;;
57101;SDS011;42982;54.558;18.508;2023-11-21T03:59:58;1.60;;;1.30;;
57101;SDS011;42982;54.558;18.508;2023-11-21T04:00:59;2.05;;;1.20;;
57101;SDS011;42982;54.558;18.508;2023-11-21T04:02:01;1.73;;;1.30;;
57101;SDS011;42982;54.558;18.508;2023-11-21T04:03:03;1.88;;;1.10;;
57101;SDS011;42982;54.558;18.508;2023-11-21T04:04:05;1.98;;;1.33;;
57101;SDS011;42982;54.558;18.508;2023-11-21T04:05:10;1.58;;;1.23;;
57101;SDS011;42982;54.558;18.508;2023-11-21T04:06:12;2.03;;;1.48;;
57101;SDS011;42982;54.558;18.508;2023-11-21T04:07:17;1.50;;;1.27;;
57101;SDS011;42982;54.558;18.508;2023-11-21T04:08:19;3.38;;;1.20;;
57101;SDS011;42982;54.558;18.508;2023-11-21T04:09:21;2.25;;;1.33;;
57101;SDS011;42982;54.558;18.508;2023-11-21T04:10:26;1.67;;;1.50;;
57101;SDS011;42982;54.558;18.508;2023-11-21T04:11:27;3.13;;;1.30;;
57101;SDS011;42982;54.558;18.508;2023-11-21T04:12:31;3.40;;;1.10;;
57101;SDS011;42982;54.558;18.508;2023-11-21T04:13:32;1.70;;;1.23;;
57101;SDS011;42982;54.558;18.508;2023-11-21T04:14:34;1.63;;;1.25;;
57101;SDS011;42982;54.558;18.508;2023-11-21T04:15:36;1.88;;;1.20;;
57101;SDS011;42982;54.558;18.508;2023-11-21T04:16:37;1.55;;;1.33;;
57101;SDS011;42982;54.558;18.508;2023-11-21T04:17:39;3.33;;;1.30;;
57101;SDS011;42982;54.558;18.508;2023-11-21T04:18:43;1.50;;;1.10;;
57101;SDS011;42982;54.558;18.508;2023-11-21T04:19:45;5.65;;;1.30;;
57101;SDS011;42982;54.558;18.508;2023-11-21T04:20:50;1.90;;;1.33;;
57101;SDS011;42982;54.558;18.508;2023-11-21T04:21:52;2.72;;;1.38;;
57101;SDS011;42982;54.558;18.508;2023-11-21T04:22:53;1.60;;;1.13;;
57101;SDS011;42982;54.558;18.508;2023-11-21T04:23:55;1.95;;;1.30;;
57101;SDS011;42982;54.558;18.508;2023-11-21T04:24:56;1.20;;;1.05;;
57101;SDS011;42982;54.558;18.508;2023-11-21T04:25:58;2.20;;;1.17;;
57101;SDS011;42982;54.558;18.508;2023-11-21T04:26:59;1.83;;;1.23;;
57101;SDS011;42982;54.558;18.508;2023-11-21T04:28:01;1.60;;;1.30;;
57101;SDS011;42982;54.558;18.508;2023-11-21T04:29:03;2.25;;;1.30;;
57101;SDS011;42982;54.558;18.508;2023-11-21T04:30:05;3.20;;;1.40;;
57101;SDS011;42982;54.558;18.508;2023-11-21T04:31:08;1.50;;;1.10;;
57101;SDS011;42982;54.558;18.508;2023-11-21T04:32:10;2.53;;;1.20;;
57101;SDS011;42982;54.558;18.508;2023-11-21T04:33:13;3.17;;;1.30;;
57101;SDS011;42982;54.558;18.508;2023-11-21T04:34:17;4.00;;;1.60;;
57101;SDS011;42982;54.558;18.508;2023-11-21T04:35:19;2.05;;;1.20;;
57101;SDS011;42982;54.558;18.508;2023-11-21T04:36:21;1.48;;;1.10;;
57101;SDS011;42982;54.558;18.508;2023-11-21T04:37:22;1.50;;;1.20;;
57101;SDS011;42982;54.558;18.508;2023-11-21T04:38:24;3.15;;;1.40;;
57101;SDS011;42982;54.558;18.508;2023-11-21T04:39:26;2.17;;;1.30;;
57101;SDS011;42982;54.558;18.508;2023-11-21T04:40:27;1.55;;;1.20;;
57101;SDS011;42982;54.558;18.508;2023-11-21T04:41:32;1.92;;;1.30;;
57101;SDS011;42982;54.558;18.508;2023-11-21T04:42:34;3.30;;;1.15;;
57101;SDS011;42982;54.558;18.508;2023-11-21T04:43:38;2.13;;;1.17;;
57101;SDS011;42982;54.558;18.508;2023-11-21T04:44:39;1.42;;;1.10;;
57101;SDS011;42982;54.558;18.508;2023-11-21T04:45:41;2.70;;;1.20;;
57101;SDS011;42982;54.558;18.508;2023-11-21T04:46:43;2.08;;;1.30;;
57101;SDS011;42982;54.558;18.508;2023-11-21T04:47:44;1.10;;;1.00;;
57101;SDS011;42982;54.558;18.508;2023-11-21T04:48:46;2.10;;;1.25;;
57101;SDS011;42982;54.558;18.508;2023-11-21T04:49:50;1.88;;;1.20;;
57101;SDS011;42982;54.558;18.508;2023-11-21T04:50:52;1.83;;;1.30;;
57101;SDS011;42982;54.558;18.508;2023-11-21T04:51:54;1.75;;;1.25;;
57101;SDS011;42982;54.558;18.508;2023-11-21T04:52:55;3.03;;;1.52;;
57101;SDS011;42982;54.558;18.508;2023-11-21T04:53:57;2.42;;;1.38;;
57101;SDS011;42982;54.558;18.508;2023-11-21T04:54:59;2.00;;;1.38;;
57101;SDS011;42982;54.558;18.508;2023-11-21T04:56:02;2.08;;;1.30;;
57101;SDS011;42982;54.558;18.508;2023-11-21T04:57:05;2.28;;;1.30;;
57101;SDS011;42982;54.558;18.508;2023-11-21T04:58:13;1.88;;;1.30;;
57101;SDS011;42982;54.558;18.508;2023-11-21T04:59:14;1.85;;;1.20;;
57101;SDS011;42982;54.558;18.508;2023-11-21T05:00:16;1.65;;;1.13;;
57101;SDS011;42982;54.558;18.508;2023-11-21T05:01:21;1.27;;;1.10;;
57101;SDS011;42982;54.558;18.508;2023-11-21T05:02:23;1.85;;;1.33;;
57101;SDS011;42982;54.558;18.508;2023-11-21T05:03:24;1.35;;;1.13;;
57101;SDS011;42982;54.558;18.508;2023-11-21T05:04:26;2.22;;;1.38;;
57101;SDS011;42982;54.558;18.508;2023-11-21T05:05:27;3.38;;;1.30;;
57101;SDS011;42982;54.558;18.508;2023-11-21T05:06:32;2.60;;;1.40;;
57101;SDS011;42982;54.558;18.508;2023-11-21T05:07:34;1.33;;;1.10;;
57101;SDS011;42982;54.558;18.508;2023-11-21T05:08:35;1.90;;;1.20;;
57101;SDS011;42982;54.558;18.508;2023-11-21T05:09:40;2.80;;;1.35;;
57101;SDS011;42982;54.558;18.508;2023-11-21T05:10:44;2.15;;;1.27;;
57101;SDS011;42982;54.558;18.508;2023-11-21T05:11:45;1.83;;;1.20;;
57101;SDS011;42982;54.558;18.508;2023-11-21T05:12:47;2.15;;;1.30;;
57101;SDS011;42982;54.558;18.508;2023-11-21T05:13:51;1.90;;;1.35;;
57101;SDS011;42982;54.558;18.508;2023-11-21T05:14:53;2.30;;;1.13;;
57101;SDS011;42982;54.558;18.508;2023-11-21T05:15:54;2.63;;;1.35;;
57101;SDS011;42982;54.558;18.508;2023-11-21T05:16:59;1.80;;;1.30;;
57101;SDS011;42982;54.558;18.508;2023-11-21T05:18:04;2.05;;;1.23;;
57101;SDS011;42982;54.558;18.508;2023-11-21T05:19:06;2.33;;;1.20;;
57101;SDS011;42982;54.558;18.508;2023-11-21T05:20:10;1.55;;;1.27;;
57101;SDS011;42982;54.558;18.508;2023-11-21T05:21:13;1.75;;;1.10;;
57101;SDS011;42982;54.558;18.508;2023-11-21T05:22:15;1.55;;;1.23;;
57101;SDS011;42982;54.558;18.508;2023-11-21T05:23:19;1.50;;;1.20;;
57101;SDS011;42982;54.558;18.508;2023-11-21T05:24:21;1.48;;;1.13;;
57101;SDS011;42982;54.558;18.508;2023-11-21T05:25:24;3.85;;;1.50;;
57101;SDS011;42982;54.558;18.508;2023-11-21T05:26:26;7.18;;;1.40;;
57101;SDS011;42982;54.558;18.508;2023-11-21T05:27:27;2.13;;;1.50;;
57101;SDS011;42982;54.558;18.508;2023-11-21T05:28:30;1.50;;;1.10;;
57101;SDS011;42982;54.558;18.508;2023-11-21T05:29:31;1.80;;;1.20;;
57101;SDS011;42982;54.558;18.508;2023-11-21T05:30:33;1.88;;;1.50;;
57101;SDS011;42982;54.558;18.508;2023-11-21T05:31:35;4.28;;;1.70;;
57101;SDS011;42982;54.558;18.508;2023-11-21T05:32:41;5.47;;;2.03;;
57101;SDS011;42982;54.558;18.508;2023-11-21T05:33:43;7.05;;;2.58;;
57101;SDS011;42982;54.558;18.508;2023-11-21T05:34:44;4.07;;;1.98;;
57101;SDS011;42982;54.558;18.508;2023-11-21T05:35:46;6.85;;;2.10;;
57101;SDS011;42982;54.558;18.508;2023-11-21T05:36:49;7.72;;;2.47;;
57101;SDS011;42982;54.558;18.508;2023-11-21T05:37:51;8.80;;;3.28;;
57101;SDS011;42982;54.558;18.508;2023-11-21T05:38:55;9.68;;;2.78;;
57101;SDS011;42982;54.558;18.508;2023-11-21T05:39:59;9.40;;;2.70;;
57101;SDS011;42982;54.558;18.508;2023-11-21T05:41:06;12.15;;;3.20;;
57101;SDS011;42982;54.558;18.508;2023-11-21T05:42:09;9.32;;;3.00;;
57101;SDS011;42982;54.558;18.508;2023-11-21T05:43:11;8.75;;;2.58;;
57101;SDS011;42982;54.558;18.508;2023-11-21T05:44:14;8.85;;;2.67;;
57101;SDS011;42982;54.558;18.508;2023-11-21T05:45:16;11.90;;;3.28;;
57101;SDS011;42982;54.558;18.508;2023-11-21T05:46:19;12.70;;;3.03;;
57101;SDS011;42982;54.558;18.508;2023-11-21T05:47:20;10.95;;;3.10;;
57101;SDS011;42982;54.558;18.508;2023-11-21T05:48:23;9.63;;;2.90;;
57101;SDS011;42982;54.558;18.508;2023-11-21T05:49:26;9.20;;;2.65;;
57101;SDS011;42982;54.558;18.508;2023-11-21T05:50:30;8.82;;;3.20;;
57101;SDS011;42982;54.558;18.508;2023-11-21T05:51:32;11.45;;;3.15;;
57101;SDS011;42982;54.558;18.508;2023-11-21T05:52:37;10.95;;;3.38;;
57101;SDS011;42982;54.558;18.508;2023-11-21T05:53:40;14.23;;;3.38;;
57101;SDS011;42982;54.558;18.508;2023-11-21T05:54:42;15.80;;;3.92;;
57101;SDS011;42982;54.558;18.508;2023-11-21T05:55:44;14.07;;;3.58;;
57101;SDS011;42982;54.558;18.508;2023-11-21T05:56:46;16.08;;;3.63;;
57101;SDS011;42982;54.558;18.508;2023-11-21T05:57:50;12.88;;;3.63;;
57101;SDS011;42982;54.558;18.508;2023-11-21T05:58:52;17.23;;;3.80;;
57101;SDS011;42982;54.558;18.508;2023-11-21T05:59:54;12.60;;;3.85;;
57101;SDS011;42982;54.558;18.508;2023-11-21T06:00:56;20.48;;;4.40;;
57101;SDS011;42982;54.558;18.508;2023-11-21T06:01:58;24.60;;;5.15;;
57101;SDS011;42982;54.558;18.508;2023-11-21T06:03:00;23.58;;;4.45;;
57101;SDS011;42982;54.558;18.508;2023-11-21T06:04:02;15.73;;;3.92;;
57101;SDS011;42982;54.558;18.508;2023-11-21T06:05:07;24.17;;;4.88;;
57101;SDS011;42982;54.558;18.508;2023-11-21T06:06:08;23.92;;;4.65;;
57101;SDS011;42982;54.558;18.508;2023-11-21T06:07:12;22.35;;;4.95;;
57101;SDS011;42982;54.558;18.508;2023-11-21T06:08:15;17.20;;;3.83;;
57101;SDS011;42982;54.558;18.508;2023-11-21T06:09:19;21.30;;;5.00;;
57101;SDS011;42982;54.558;18.508;2023-11-21T06:10:25;27.33;;;5.13;;
57101;SDS011;42982;54.558;18.508;2023-11-21T06:11:28;21.73;;;4.95;;
57101;SDS011;42982;54.558;18.508;2023-11-21T06:12:32;21.33;;;4.50;;
57101;SDS011;42982;54.558;18.508;2023-11-21T06:13:37;21.23;;;4.50;;
57101;SDS011;42982;54.558;18.508;2023-11-21T06:14:43;18.25;;;3.92;;